MGCO2: McGee Creek near Farris, OK

Data processed at Mon Jul 06 23:20:25 2015 Central Daylight Time


All information presented herein is the property of the government of the United States of America and may be revised or deleted at any time without prior notice.
Dissemination of this information without the expressed written consent of the Public Affairs Office, Tulsa District U.S. Army Corps of Engineers is strictly prohibited.
These data are gathered electronically and, as presented, have not undergone any form of quality control. These data are not guaranteed to be valid or correct.
Go to home page.
Go to station list.
Go to station map.

Upstream stations:

Downstream station: Previous Day
Next Day
Current Day

Display graphics.
Display DCP transmissions.


    
    SHEF ID:       MGCO2     McGee Creek near Farris, OK
    STATION TYPE:  RESERVOIR
    Flood Control Pool:  Bottom =  175.90, Top =  181.50
    
                   PRECIP PRECIP(2)  STAGE(2) ELEVATION   STORAGE    INFLOW   RELEASE  AIR-TEMP  WIND-DIRWIND-SPEED REL-HUMID SOLAR-RAD   VOLTAGE
                   INCHES    INCHES      FEET    METERS      ACFT       CFS       CFS     DEG-F   DEGREES       MPH   PERCENT      W/M2     VOLTS
                     GOES      GOES      GOES      GOES      GOES  COMPRESQ  COMPRESQ      GOES      GOES      GOES      GOES      GOES      GOES
       (Cen)
    07/06 01:00      0.00      0.00    593.42    180.88    188019       102       555     61.97    179.70      6.06    101.50   7190.00     14.27
    07/06 02:00      0.00      0.00    593.41    180.87    187968       102       555     62.53    182.00      6.25    134.20   7170.00     14.27
    07/06 03:00      0.00      0.00    593.40    180.87    187933       102       555     63.19    171.50      5.48    156.80   7162.00     14.26
    07/06 04:00      0.00      0.00    593.40    180.87    187899       115       555     66.15    171.10      5.56    212.30   7161.00     14.29
    07/06 05:00      0.00      0.00    593.39    180.87    187866       116       555     73.74    155.60      5.21    216.50   7156.00     14.30
    07/06 06:00      0.00      0.00    593.38    180.86    187832        88       555     74.95    151.40      5.22    213.90   7154.00     14.29
    07/06 07:00      0.00      0.00    593.37    180.86    187780        61       555     71.10    164.40      5.41    193.50   7153.00     14.29
    07/06 08:00      0.00      0.00    593.37    180.86    187746        61       555     69.12    168.20      6.51    181.40   7168.00     14.31
    07/06 09:00      0.00      0.00    593.36    180.86    187695        48       555     67.91    174.10      7.42    144.10   7142.00     14.32
    07/06 10:00      0.00      0.00    593.35    180.85    187661        47       555     66.15    191.30     10.29    136.80   7163.00     14.31
    07/06 11:00      0.00      0.00    593.34    180.85    187627       157       555     66.92    193.10     13.66    159.90   7165.00     14.29
    07/06 12:00      0.00      0.00    593.33    180.85    187576       156       555     66.38    199.60     11.25    158.50   7143.00     14.29
    07/06 13:00      0.00      0.00    593.33    180.85    187576       129       555     65.50    193.30     11.33     98.40   7141.00     14.33
    07/06 14:00      0.00      0.00    593.32    180.85    187525       113       555     65.28    198.80     13.89     96.90   7142.00     14.30
    07/06 15:00      0.00      0.00    593.31    180.84    187474       113       555     65.05    198.60     14.14     96.30   7148.00     14.27
    07/06 16:00      0.00      0.00    593.30    180.84    187406         3       555     64.29    198.40     11.93     74.50   7169.00     14.29
    07/06 17:00      0.00      0.00    593.30    180.84    187406         6       554     64.06    193.80     14.01     77.40   7176.00     14.27
    07/06 18:00      0.00      0.00    593.29    180.84    187338        20       554     63.73    190.60     13.12     74.70   7177.00     14.26
    07/06 19:00      0.00      0.00    593.28    180.83    187304        34       554     63.30    189.60     12.17     77.90   7171.00     14.25
    07/06 20:00      0.00      0.00    593.27    180.83    187236        49       554     63.19    179.80      7.62     98.10   7165.00     14.26
    07/06 21:00      0.00      0.00    593.26    180.83    187202        63       554     63.84    163.10      4.48    169.40   7161.00     14.29
    07/06 22:00      0.00      0.00    593.26    180.83    187185        74       554     64.06    167.10      4.80    168.90   7160.00     14.30
    07/06 23:00      0.00      0.00    593.25    180.82    187168      ----      ----     64.40    163.50      4.43    167.60   7182.00     14.27
    07/07 00:00      ----      ----      ----      ----      ----      ----      ----      ----      ----      ----      ----      ----      ----